Time;durP1;ratioP1;P1;durP2;ratioP2;P2;SDS_P1;SDS_P2;PMS_P1;PMS_P2;Temp;Humidity;BMP_temperature;BMP_pressure;BME280_temperature;BME280_humidity;BME280_pressure;Samples;Min_cycle;Max_cycle;Signal;HPM_P1;HPM_P2
2021/08/03 00:00:41;;;;;;;3.53;3.22;;;15.60;99.90;;;;;;2056451;28;20037;-70
2021/08/03 00:01:42;;;;;;;4.05;3.65;;;15.60;99.90;;;;;;2056354;28;20030;-71
2021/08/03 00:02:45;;;;;;;4.20;3.35;;;15.50;99.90;;;;;;2048287;29;20558;-69
2021/08/03 00:04:09;;;;;;;3.65;3.28;;;15.50;99.90;;;;;;2041165;28;20479;-70
2021/08/03 00:05:10;;;;;;;4.88;3.75;;;15.50;99.90;;;;;;2056524;28;20451;-70
2021/08/03 00:06:17;;;;;;;4.18;3.50;;;15.50;99.90;;;;;;2055894;28;20034;-70
2021/08/03 00:07:19;;;;;;;4.22;3.67;;;15.50;99.90;;;;;;2049264;28;20534;-70
2021/08/03 00:08:27;;;;;;;3.65;3.25;;;15.50;99.90;;;;;;2056337;28;20039;-71
2021/08/03 00:09:30;;;;;;;5.13;3.47;;;15.40;99.90;;;;;;2056441;28;20029;-70
2021/08/03 00:10:31;;;;;;;4.10;3.70;;;15.40;99.90;;;;;;2057057;28;20043;-68
2021/08/03 00:11:32;;;;;;;3.63;3.33;;;15.40;99.90;;;;;;2056313;28;20034;-69
2021/08/03 00:12:33;;;;;;;4.03;3.63;;;15.40;99.90;;;;;;2056213;28;20051;-70
2021/08/03 00:13:35;;;;;;;3.95;3.63;;;15.40;99.90;;;;;;2056395;28;20494;-71
2021/08/03 00:14:44;;;;;;;3.78;3.40;;;15.30;99.90;;;;;;2056548;28;20073;-70
2021/08/03 00:15:47;;;;;;;4.47;3.47;;;15.30;99.90;;;;;;2057061;28;20026;-71
2021/08/03 00:16:49;;;;;;;3.90;3.50;;;15.30;99.90;;;;;;2057234;28;20035;-71
2021/08/03 00:17:57;;;;;;;3.72;3.40;;;15.30;99.90;;;;;;2057064;28;20039;-70
2021/08/03 00:18:58;;;;;;;3.83;3.40;;;15.30;99.90;;;;;;2056441;28;20023;-69
2021/08/03 00:19:59;;;;;;;3.75;3.40;;;15.30;99.90;;;;;;2057153;28;20090;-69
2021/08/03 00:20:59;;;;;;;3.90;3.50;;;15.20;99.90;;;;;;2057118;28;20073;-71
2021/08/03 00:22:00;;;;;;;4.55;3.72;;;15.20;99.90;;;;;;2056412;28;20030;-70
2021/08/03 00:23:01;;;;;;;3.65;3.35;;;15.20;99.90;;;;;;2056558;28;20022;-70
2021/08/03 00:24:03;;;;;;;4.18;3.67;;;15.20;99.90;;;;;;2048127;29;20039;-70
2021/08/03 00:25:04;;;;;;;4.70;3.67;;;15.20;99.90;;;;;;2048481;28;20102;-71
2021/08/03 00:26:10;;;;;;;3.53;3.22;;;15.20;99.90;;;;;;2055279;28;20833;-69
2021/08/03 00:27:11;;;;;;;4.10;3.70;;;15.20;99.90;;;;;;2056585;28;20023;-70
2021/08/03 00:28:12;;;;;;;4.10;3.45;;;15.20;99.90;;;;;;2057007;28;20399;-70
2021/08/03 00:29:14;;;;;;;4.13;3.47;;;15.20;99.90;;;;;;2056348;28;20035;-71
2021/08/03 00:30:15;;;;;;;3.92;3.53;;;15.20;99.90;;;;;;2048300;29;20031;-70
2021/08/03 00:31:18;;;;;;;4.05;3.50;;;15.20;99.90;;;;;;2048363;28;20033;-70
2021/08/03 00:32:19;;;;;;;3.65;3.33;;;15.20;99.90;;;;;;2048065;29;20135;-69
2021/08/03 00:33:21;;;;;;;4.05;3.67;;;15.20;99.90;;;;;;2048191;28;20031;-68
2021/08/03 00:34:22;;;;;;;4.82;3.42;;;15.20;99.90;;;;;;2056017;28;20417;-69
2021/08/03 00:35:23;;;;;;;4.40;3.70;;;15.20;99.90;;;;;;2048010;28;20031;-69
2021/08/03 00:36:27;;;;;;;3.72;3.42;;;15.20;99.90;;;;;;2047884;28;20098;-69
2021/08/03 00:37:28;;;;;;;3.80;3.50;;;15.20;99.90;;;;;;2048403;28;20034;-70
2021/08/03 00:38:31;;;;;;;3.88;3.47;;;15.20;99.90;;;;;;2048262;28;20471;-68
2021/08/03 00:39:32;;;;;;;4.15;3.65;;;15.20;99.90;;;;;;2055655;28;20023;-69
2021/08/03 00:40:40;;;;;;;4.80;3.55;;;15.20;99.90;;;;;;2055971;28;20023;-68
2021/08/03 00:42:02;;;;;;;4.00;3.60;;;15.30;99.90;;;;;;2049013;28;20117;-69
2021/08/03 00:43:05;;;;;;;4.10;3.55;;;15.30;99.90;;;;;;2050964;28;20030;-69
2021/08/03 00:44:06;;;;;;;3.97;3.58;;;15.30;99.90;;;;;;2048074;29;20027;-69
2021/08/03 00:45:07;;;;;;;4.20;3.78;;;15.30;99.90;;;;;;2055737;28;20015;-68
2021/08/03 00:46:12;;;;;;;3.85;3.45;;;15.30;99.90;;;;;;2056357;28;20031;-69
2021/08/03 00:47:16;;;;;;;4.35;3.95;;;15.30;99.90;;;;;;2056602;28;20027;-69
2021/08/03 00:48:19;;;;;;;4.55;3.30;;;15.40;99.90;;;;;;2055902;28;20027;-69
2021/08/03 00:49:19;;;;;;;4.18;3.58;;;15.40;99.90;;;;;;2055498;28;20114;-68
2021/08/03 00:50:21;;;;;;;3.90;3.50;;;15.40;99.90;;;;;;2056653;28;20143;-68
2021/08/03 00:51:22;;;;;;;3.83;3.53;;;15.40;99.90;;;;;;2056672;28;20104;-68
2021/08/03 00:52:27;;;;;;;3.60;3.30;;;15.50;99.90;;;;;;2056176;28;20033;-69
2021/08/03 00:53:30;;;;;;;3.70;3.40;;;15.40;99.90;;;;;;2056106;28;20031;-68
2021/08/03 00:54:32;;;;;;;3.70;3.40;;;15.50;99.90;;;;;;2056424;28;20023;-67
2021/08/03 00:55:36;;;;;;;4.22;3.63;;;15.50;99.90;;;;;;2056451;28;20031;-69
2021/08/03 00:56:37;;;;;;;4.40;3.45;;;15.50;99.90;;;;;;2056989;28;20034;-70
2021/08/03 00:57:39;;;;;;;3.78;3.38;;;15.50;99.90;;;;;;2056233;28;20030;-71
2021/08/03 00:58:42;;;;;;;4.03;3.63;;;15.50;99.90;;;;;;2056160;28;20105;-69
2021/08/03 00:59:42;;;;;;;4.40;3.50;;;15.50;99.90;;;;;;2055765;28;20023;-70
2021/08/03 01:00:45;;;;;;;3.85;3.40;;;15.50;99.90;;;;;;2056182;28;20387;-71
2021/08/03 01:01:47;;;;;;;4.20;3.60;;;15.50;99.90;;;;;;2056901;28;20406;-69
2021/08/03 01:02:48;;;;;;;3.83;3.42;;;15.60;99.90;;;;;;2055880;28;20026;-69
2021/08/03 01:03:49;;;;;;;4.22;3.80;;;15.60;99.90;;;;;;2048052;28;20087;-68
2021/08/03 01:04:50;;;;;;;5.20;4.18;;;15.60;99.90;;;;;;2048094;28;20023;-71
2021/08/03 01:06:27;;;;;;;4.40;4.00;;;15.60;99.90;;;;;;2055768;28;20037;-68
2021/08/03 01:07:47;;;;;;;6.50;4.40;;;15.60;99.90;;;;;;2031686;29;20028;-68
2021/08/03 01:09:04;;;;;;;4.97;4.10;;;15.60;99.90;;;;;;2055694;28;20483;-68
2021/08/03 01:10:32;;;;;;;4.22;3.80;;;15.60;99.90;;;;;;2056529;28;20022;-69
2021/08/03 01:11:43;;;;;;;4.60;4.03;;;15.60;99.90;;;;;;2055865;28;20370;-67
2021/08/03 01:13:03;;;;;;;4.85;4.38;;;15.70;99.90;;;;;;2048598;28;20031;-68
2021/08/03 01:14:15;;;;;;;5.80;4.47;;;15.70;99.90;;;;;;2050051;28;20031;-68
2021/08/03 01:15:52;;;;;;;5.35;4.20;;;15.70;99.90;;;;;;2049300;28;20118;-69
2021/08/03 01:17:12;;;;;;;4.20;3.80;;;15.70;99.90;;;;;;2052417;28;20038;-69
2021/08/03 01:18:30;;;;;;;4.70;4.22;;;15.70;99.90;;;;;;2050590;28;20065;-68
2021/08/03 01:20:12;;;;;;;4.50;4.10;;;15.70;99.90;;;;;;2055670;28;20958;-69
2021/08/03 01:21:42;;;;;;;6.50;4.60;;;15.70;99.90;;;;;;2056546;28;20029;-68
2021/08/03 01:23:17;;;;;;;5.18;4.40;;;15.70;99.90;;;;;;2055933;28;20027;-68
2021/08/03 01:24:36;;;;;;;5.43;4.20;;;15.70;99.90;;;;;;2056223;28;20434;-69
2021/08/03 01:26:15;;;;;;;5.30;4.10;;;15.70;99.90;;;;;;2047474;28;20038;-70
2021/08/03 01:27:40;;;;;;;5.20;4.10;;;15.80;99.90;;;;;;2053256;28;20061;-69
2021/08/03 01:28:45;;;;;;;5.40;4.15;;;15.70;99.90;;;;;;2045779;28;20038;-69
2021/08/03 01:29:49;;;;;;;5.05;4.13;;;15.70;99.90;;;;;;2047871;28;20056;-70
2021/08/03 01:30:54;;;;;;;4.38;3.90;;;15.70;99.90;;;;;;2047987;28;20035;-75
2021/08/03 01:32:05;;;;;;;5.72;4.30;;;15.80;99.90;;;;;;2048399;28;20040;-69
2021/08/03 01:33:07;;;;;;;5.50;4.07;;;15.80;99.90;;;;;;2040988;29;20107;-69
2021/08/03 01:34:13;;;;;;;4.68;4.00;;;15.70;99.90;;;;;;2039936;28;20031;-69
2021/08/03 01:35:19;;;;;;;4.22;3.83;;;15.70;99.90;;;;;;2055632;28;20035;-70
2021/08/03 01:36:21;;;;;;;5.13;4.20;;;15.70;99.90;;;;;;2056052;28;20572;-69
2021/08/03 01:37:24;;;;;;;4.20;3.60;;;15.70;99.90;;;;;;2055509;28;20042;-70
2021/08/03 01:38:28;;;;;;;4.07;3.67;;;15.70;99.90;;;;;;2055714;28;20031;-69
2021/08/03 01:39:35;;;;;;;4.20;3.70;;;15.70;99.90;;;;;;2055137;28;20582;-69
2021/08/03 01:40:39;;;;;;;4.10;3.70;;;15.80;99.90;;;;;;2040748;28;20051;-70
2021/08/03 01:41:44;;;;;;;5.40;3.83;;;15.70;99.90;;;;;;2040446;28;20019;-69
2021/08/03 01:42:46;;;;;;;4.78;4.00;;;15.70;99.90;;;;;;2048292;28;20047;-70
2021/08/03 01:43:49;;;;;;;4.45;3.90;;;15.70;99.90;;;;;;2055678;28;20030;-69
2021/08/03 01:44:52;;;;;;;4.40;4.00;;;15.80;99.90;;;;;;2055473;28;20031;-69
2021/08/03 01:45:58;;;;;;;4.68;4.13;;;15.80;99.90;;;;;;2055486;28;20031;-70
2021/08/03 01:47:01;;;;;;;4.28;3.88;;;15.80;99.90;;;;;;2056209;28;20033;-70
2021/08/03 01:48:03;;;;;;;4.40;4.00;;;15.80;99.90;;;;;;2056260;28;20403;-70
2021/08/03 01:49:15;;;;;;;4.65;3.92;;;15.80;99.90;;;;;;2055772;28;20479;-67
2021/08/03 01:50:17;;;;;;;4.05;3.67;;;15.80;99.90;;;;;;2055569;28;20113;-70
2021/08/03 01:51:27;;;;;;;4.47;4.00;;;15.80;99.90;;;;;;2048831;28;20035;-69
2021/08/03 01:52:31;;;;;;;4.10;3.70;;;15.80;99.90;;;;;;2055623;28;20031;-68
2021/08/03 01:53:37;;;;;;;3.97;3.58;;;15.80;99.90;;;;;;2055635;28;20084;-68
2021/08/03 01:54:39;;;;;;;4.72;3.55;;;15.80;99.90;;;;;;2055800;28;20037;-69
2021/08/03 01:55:41;;;;;;;3.95;3.58;;;15.80;99.90;;;;;;2055359;28;20027;-69
2021/08/03 01:56:51;;;;;;;3.95;3.53;;;15.80;99.90;;;;;;2055464;28;20035;-68
2021/08/03 01:57:53;;;;;;;5.30;3.90;;;15.80;99.90;;;;;;2056358;28;20058;-68
2021/08/03 01:59:03;;;;;;;4.15;3.75;;;15.80;99.90;;;;;;2055866;28;20398;-68
2021/08/03 02:00:06;;;;;;;4.53;3.65;;;15.80;99.90;;;;;;2055649;28;20554;-67
2021/08/03 02:01:19;;;;;;;3.92;3.53;;;15.80;99.90;;;;;;2055742;28;20035;-70
2021/08/03 02:02:23;;;;;;;3.53;3.22;;;15.80;99.90;;;;;;2055556;28;20027;-66
2021/08/03 02:03:35;;;;;;;4.35;3.72;;;15.80;99.90;;;;;;2048980;28;20439;-66
2021/08/03 02:04:56;;;;;;;4.15;3.70;;;15.80;99.90;;;;;;2055920;28;20027;-68
2021/08/03 02:05:57;;;;;;;4.25;3.70;;;15.80;99.90;;;;;;2055357;28;20061;-68
2021/08/03 02:07:05;;;;;;;5.25;3.55;;;15.80;99.90;;;;;;2048351;28;20023;-67
2021/08/03 02:08:07;;;;;;;4.03;3.63;;;15.70;99.90;;;;;;2055482;28;20031;-68
2021/08/03 02:09:10;;;;;;;5.00;3.75;;;15.80;99.90;;;;;;2055078;28;20023;-68
2021/08/03 02:10:11;;;;;;;4.00;3.60;;;15.70;99.90;;;;;;2047621;28;20035;-68
2021/08/03 02:11:12;;;;;;;4.38;3.67;;;15.70;99.90;;;;;;2055523;28;20106;-67
2021/08/03 02:12:13;;;;;;;4.00;3.60;;;15.70;99.90;;;;;;2055601;28;20039;-68
2021/08/03 02:13:16;;;;;;;4.70;3.50;;;15.70;99.90;;;;;;2055527;28;20037;-68
2021/08/03 02:14:21;;;;;;;3.70;3.33;;;15.70;99.90;;;;;;2056587;28;20368;-68
2021/08/03 02:15:43;;;;;;;3.90;3.50;;;15.70;99.90;;;;;;2055671;28;20174;-68
2021/08/03 02:16:44;;;;;;;4.00;3.60;;;15.70;99.90;;;;;;2056058;28;20035;-68
2021/08/03 02:17:48;;;;;;;3.78;3.45;;;15.70;99.90;;;;;;2055804;28;20019;-68
2021/08/03 02:18:59;;;;;;;3.97;3.60;;;15.70;99.90;;;;;;2040818;29;20651;-68
2021/08/03 02:20:06;;;;;;;5.78;3.92;;;15.70;99.90;;;;;;2042729;28;20127;-67
2021/08/03 02:21:09;;;;;;;3.92;3.40;;;15.70;99.90;;;;;;2039885;29;20162;-69
2021/08/03 02:22:11;;;;;;;4.05;3.60;;;15.70;99.90;;;;;;2048059;28;20148;-68
2021/08/03 02:23:21;;;;;;;4.22;3.53;;;15.70;99.90;;;;;;2055686;28;20031;-68
2021/08/03 02:24:28;;;;;;;4.45;3.63;;;15.70;99.90;;;;;;2048479;28;20034;-67
2021/08/03 02:25:29;;;;;;;4.88;3.63;;;15.70;99.90;;;;;;2047255;28;20027;-68
2021/08/03 02:26:30;;;;;;;4.57;3.40;;;15.70;99.90;;;;;;2047437;29;20031;-68
2021/08/03 02:27:32;;;;;;;3.70;3.40;;;15.70;99.90;;;;;;2055591;28;20427;-68
2021/08/03 02:28:33;;;;;;;3.65;3.28;;;15.70;99.90;;;;;;2055598;28;20031;-67
2021/08/03 02:29:39;;;;;;;5.55;3.72;;;15.60;99.90;;;;;;2047060;29;20040;-68
2021/08/03 02:30:44;;;;;;;4.10;3.67;;;15.60;99.90;;;;;;2047870;28;20023;-68
2021/08/03 02:31:51;;;;;;;3.78;3.47;;;15.60;99.90;;;;;;2055475;28;20588;-67
2021/08/03 02:33:22;;;;;;;3.83;3.40;;;15.60;99.90;;;;;;2056210;28;20031;-68
2021/08/03 02:34:29;;;;;;;3.60;3.30;;;15.60;99.90;;;;;;2055367;28;20398;-67
2021/08/03 02:35:40;;;;;;;4.00;3.60;;;15.60;99.90;;;;;;2048109;28;20082;-66
2021/08/03 02:36:49;;;;;;;3.72;3.42;;;15.60;99.90;;;;;;2055383;28;20027;-68
2021/08/03 02:38:04;;;;;;;3.50;3.20;;;15.60;99.90;;;;;;2055369;28;20089;-68
2021/08/03 02:39:08;;;;;;;3.42;3.13;;;15.60;99.90;;;;;;2054777;28;20027;-68
2021/08/03 02:40:10;;;;;;;3.67;3.38;;;15.60;99.90;;;;;;2055259;28;20093;-68
2021/08/03 02:41:30;;;;;;;4.93;3.50;;;15.60;99.90;;;;;;2056002;28;20039;-68
2021/08/03 02:42:32;;;;;;;3.92;3.33;;;15.60;99.90;;;;;;2055296;28;20128;-69
2021/08/03 02:43:36;;;;;;;3.92;3.20;;;15.60;99.90;;;;;;2055406;28;20031;-68
2021/08/03 02:44:39;;;;;;;4.57;3.20;;;15.60;99.90;;;;;;2055332;28;20038;-68
2021/08/03 02:45:40;;;;;;;3.42;3.13;;;15.60;99.90;;;;;;2047320;28;20031;-68
2021/08/03 02:46:42;;;;;;;3.60;3.30;;;15.60;99.90;;;;;;2047371;28;20023;-69
2021/08/03 02:47:54;;;;;;;3.58;3.28;;;15.60;99.90;;;;;;2055304;28;20367;-69
2021/08/03 02:49:06;;;;;;;3.38;3.08;;;15.60;99.90;;;;;;2056308;28;20027;-69
2021/08/03 02:50:08;;;;;;;4.35;3.40;;;15.60;99.90;;;;;;2057833;28;20031;-70
2021/08/03 02:51:10;;;;;;;3.95;3.40;;;15.60;99.90;;;;;;2057120;28;20102;-70
2021/08/03 02:52:13;;;;;;;3.75;3.13;;;15.60;99.90;;;;;;2057014;28;20050;-69
2021/08/03 02:53:28;;;;;;;3.80;3.25;;;15.60;99.90;;;;;;2057662;28;20058;-69
2021/08/03 02:54:35;;;;;;;3.17;2.90;;;15.60;99.90;;;;;;2057637;28;20720;-69
2021/08/03 02:55:45;;;;;;;6.60;3.10;;;15.60;99.90;;;;;;2057230;28;20019;-68
2021/08/03 02:56:51;;;;;;;3.60;3.30;;;15.60;99.90;;;;;;2056886;28;20060;-69
2021/08/03 02:57:58;;;;;;;3.53;3.15;;;15.60;99.90;;;;;;2049660;28;20110;-71
2021/08/03 02:59:05;;;;;;;4.43;3.45;;;15.60;99.90;;;;;;2049654;28;20028;-69
2021/08/03 03:00:08;;;;;;;3.30;3.05;;;15.60;99.90;;;;;;2057136;28;20027;-68
2021/08/03 03:01:11;;;;;;;3.50;3.20;;;15.60;99.90;;;;;;2057294;28;20031;-69
2021/08/03 03:02:14;;;;;;;3.70;3.40;;;15.60;99.90;;;;;;2056765;28;20518;-68
2021/08/03 03:03:23;;;;;;;3.70;3.40;;;15.60;99.90;;;;;;2056877;28;20026;-69
2021/08/03 03:04:28;;;;;;;3.60;3.13;;;15.60;99.90;;;;;;2049768;28;20031;-69
2021/08/03 03:05:31;;;;;;;3.40;3.10;;;15.60;99.90;;;;;;2049274;28;20031;-69
2021/08/03 03:06:37;;;;;;;4.65;3.05;;;15.60;99.90;;;;;;2049558;28;20061;-69
2021/08/03 03:07:45;;;;;;;3.80;3.35;;;15.60;99.90;;;;;;2049535;28;20529;-70
2021/08/03 03:08:46;;;;;;;3.53;3.22;;;15.60;99.90;;;;;;2050276;28;20495;-70
2021/08/03 03:09:48;;;;;;;3.40;3.10;;;15.70;99.90;;;;;;2056719;28;20075;-70
2021/08/03 03:10:52;;;;;;;3.60;3.30;;;15.60;99.90;;;;;;2057731;28;20050;-70
2021/08/03 03:11:53;;;;;;;4.60;3.30;;;15.70;99.90;;;;;;2057628;28;20026;-69
2021/08/03 03:12:59;;;;;;;3.33;3.03;;;15.60;99.90;;;;;;2057010;28;20106;-69
2021/08/03 03:14:02;;;;;;;3.28;3.08;;;15.70;99.90;;;;;;2049579;28;20529;-69
2021/08/03 03:15:08;;;;;;;3.50;3.20;;;15.70;99.90;;;;;;2057015;28;20030;-69
2021/08/03 03:16:12;;;;;;;3.90;3.20;;;15.70;99.90;;;;;;2049095;28;20434;-68
2021/08/03 03:17:15;;;;;;;3.47;3.17;;;15.70;99.90;;;;;;2041324;29;20399;-69
2021/08/03 03:18:19;;;;;;;3.45;3.15;;;15.70;99.90;;;;;;2041834;28;20043;-69
2021/08/03 03:19:22;;;;;;;3.67;3.38;;;15.70;99.90;;;;;;2048879;28;20028;-69
2021/08/03 03:20:24;;;;;;;3.80;3.40;;;15.70;99.90;;;;;;2048974;28;20143;-69
2021/08/03 03:21:27;;;;;;;4.45;3.50;;;15.70;99.90;;;;;;2056883;28;20376;-68
2021/08/03 03:22:29;;;;;;;3.70;3.33;;;15.60;99.90;;;;;;2057318;28;20483;-70
2021/08/03 03:23:35;;;;;;;3.45;3.17;;;15.60;99.90;;;;;;2056630;28;20031;-68
2021/08/03 03:24:38;;;;;;;3.72;3.10;;;15.60;99.90;;;;;;2049441;28;20043;-70
2021/08/03 03:25:39;;;;;;;5.85;3.20;;;15.60;99.90;;;;;;2048545;28;20027;-68
2021/08/03 03:26:41;;;;;;;3.67;3.38;;;15.60;99.90;;;;;;2056739;28;20050;-69
2021/08/03 03:27:49;;;;;;;3.60;3.28;;;15.60;99.90;;;;;;2056739;28;20503;-69
2021/08/03 03:28:53;;;;;;;3.53;3.22;;;15.50;99.90;;;;;;2048336;29;20027;-69
2021/08/03 03:29:55;;;;;;;3.67;3.38;;;15.50;99.90;;;;;;2048658;28;20071;-69
2021/08/03 03:30:57;;;;;;;3.78;3.38;;;15.50;99.90;;;;;;2056617;28;20641;-69
2021/08/03 03:31:59;;;;;;;3.63;3.33;;;15.50;99.90;;;;;;2048677;28;20578;-69
2021/08/03 03:33:05;;;;;;;3.70;3.40;;;15.50;99.90;;;;;;2056595;28;20085;-69
2021/08/03 03:34:10;;;;;;;3.70;3.40;;;15.40;99.90;;;;;;2056627;28;20027;-70
2021/08/03 03:35:13;;;;;;;3.60;3.25;;;15.40;99.90;;;;;;2056650;28;20031;-69
2021/08/03 03:36:14;;;;;;;3.95;3.38;;;15.40;99.90;;;;;;2057054;28;20448;-68
2021/08/03 03:37:15;;;;;;;3.97;3.20;;;15.40;99.90;;;;;;2056943;28;20688;-69
2021/08/03 03:38:23;;;;;;;3.47;3.17;;;15.40;99.90;;;;;;2057064;28;20038;-69
2021/08/03 03:39:25;;;;;;;4.45;3.50;;;15.40;99.90;;;;;;2056631;28;20019;-69
2021/08/03 03:40:30;;;;;;;3.50;3.20;;;15.40;99.90;;;;;;2056530;28;20550;-67
2021/08/03 03:41:33;;;;;;;3.60;3.30;;;15.40;99.90;;;;;;2048696;28;20592;-68
2021/08/03 03:42:35;;;;;;;4.63;3.40;;;15.50;99.90;;;;;;2048899;28;20038;-68
2021/08/03 03:43:38;;;;;;;3.40;3.10;;;15.50;99.90;;;;;;2056652;28;20038;-68
2021/08/03 03:44:40;;;;;;;3.58;3.28;;;15.50;99.90;;;;;;2056630;28;20034;-69
2021/08/03 03:45:45;;;;;;;4.43;3.10;;;15.50;99.90;;;;;;2048402;28;20037;-68
2021/08/03 03:46:57;;;;;;;3.40;3.10;;;15.50;99.90;;;;;;2056386;28;20031;-68
2021/08/03 03:48:06;;;;;;;3.72;3.40;;;15.50;99.90;;;;;;2056674;28;20046;-68
2021/08/03 03:49:13;;;;;;;4.38;3.55;;;15.60;99.90;;;;;;2049306;28;20039;-68
2021/08/03 03:50:26;;;;;;;3.67;3.38;;;15.60;99.90;;;;;;2056724;28;20031;-69
2021/08/03 03:51:29;;;;;;;4.43;3.30;;;15.60;99.90;;;;;;2056781;28;20026;-69
2021/08/03 03:52:39;;;;;;;3.75;3.20;;;15.60;99.90;;;;;;2056758;28;20026;-68
2021/08/03 03:53:48;;;;;;;3.97;3.60;;;15.60;99.90;;;;;;2056742;28;20534;-69
2021/08/03 03:54:51;;;;;;;4.13;3.40;;;15.60;99.90;;;;;;2057533;28;20038;-69
2021/08/03 03:55:58;;;;;;;3.70;3.40;;;15.60;99.90;;;;;;2056089;28;20023;-69
2021/08/03 03:57:03;;;;;;;3.72;3.30;;;15.60;99.90;;;;;;2056487;28;20803;-69
2021/08/03 03:58:07;;;;;;;3.67;3.33;;;15.60;99.90;;;;;;2057336;28;20018;-69
2021/08/03 03:59:11;;;;;;;3.60;3.30;;;15.70;99.90;;;;;;2056491;28;20496;-70
2021/08/03 04:00:14;;;;;;;5.35;3.63;;;15.70;99.90;;;;;;2056824;28;20106;-69
2021/08/03 04:01:24;;;;;;;4.43;3.50;;;15.70;99.90;;;;;;2056462;28;20058;-69
2021/08/03 04:02:26;;;;;;;3.83;3.40;;;15.70;99.90;;;;;;2057019;28;20042;-68
2021/08/03 04:03:30;;;;;;;3.72;3.42;;;15.70;99.90;;;;;;2056385;28;20093;-68
2021/08/03 04:04:33;;;;;;;3.92;3.30;;;15.70;99.90;;;;;;2056410;28;20023;-68
2021/08/03 04:05:41;;;;;;;4.65;3.53;;;15.70;99.90;;;;;;2055931;28;20046;-69
2021/08/03 04:06:42;;;;;;;4.18;3.58;;;15.70;99.90;;;;;;2056158;28;20033;-68
2021/08/03 04:07:49;;;;;;;4.03;3.50;;;15.70;99.90;;;;;;2056294;28;20110;-69
2021/08/03 04:08:50;;;;;;;5.05;3.50;;;15.70;99.90;;;;;;2049321;28;20118;-68
2021/08/03 04:10:12;;;;;;;4.90;3.70;;;15.70;99.90;;;;;;2056064;28;20031;-70
2021/08/03 04:11:18;;;;;;;5.43;3.60;;;15.70;99.90;;;;;;2048403;29;20024;-69
2021/08/03 04:12:23;;;;;;;5.15;3.80;;;15.60;99.90;;;;;;2049639;28;20066;-68
2021/08/03 04:13:24;;;;;;;4.10;3.60;;;15.70;99.90;;;;;;2056505;28;20026;-69
2021/08/03 04:14:28;;;;;;;4.10;3.70;;;15.70;99.90;;;;;;2056335;28;20022;-71
2021/08/03 04:15:35;;;;;;;3.78;3.40;;;15.70;99.90;;;;;;2049063;28;20024;-69
2021/08/03 04:16:36;;;;;;;3.55;3.25;;;15.70;99.90;;;;;;2048639;28;20094;-69
2021/08/03 04:17:37;;;;;;;3.75;3.45;;;15.70;99.90;;;;;;2056454;28;20617;-70
2021/08/03 04:18:38;;;;;;;3.88;3.55;;;15.80;99.90;;;;;;2057222;28;20026;-69
2021/08/03 04:19:39;;;;;;;4.45;3.60;;;15.80;99.90;;;;;;2056583;28;20478;-71
2021/08/03 04:20:39;;;;;;;3.90;3.40;;;15.80;99.90;;;;;;2056983;28;20106;-70
2021/08/03 04:21:42;;;;;;;3.90;3.50;;;15.80;99.90;;;;;;2056155;28;20093;-70
2021/08/03 04:22:43;;;;;;;3.95;3.60;;;15.80;99.90;;;;;;2056300;28;20026;-69
2021/08/03 04:23:44;;;;;;;4.28;3.40;;;15.80;99.90;;;;;;2056764;28;20041;-69
2021/08/03 04:24:44;;;;;;;4.00;3.60;;;15.90;99.90;;;;;;2056268;28;20023;-69
2021/08/03 04:25:45;;;;;;;4.40;3.78;;;15.80;99.90;;;;;;2047928;28;20023;-70
2021/08/03 04:26:46;;;;;;;4.20;3.80;;;15.80;99.90;;;;;;2056202;28;20026;-70
2021/08/03 04:27:47;;;;;;;7.55;3.67;;;15.80;99.90;;;;;;2056329;28;20157;-70
2021/08/03 04:28:48;;;;;;;4.18;3.78;;;15.80;99.90;;;;;;2056830;28;20037;-69
2021/08/03 04:29:48;;;;;;;5.55;3.80;;;15.80;99.90;;;;;;2055577;28;20022;-68
2021/08/03 04:30:49;;;;;;;5.85;4.22;;;15.80;99.90;;;;;;2056302;28;20069;-70
2021/08/03 04:31:50;;;;;;;6.05;3.83;;;15.80;99.90;;;;;;2056841;28;20478;-69
2021/08/03 04:32:50;;;;;;;4.63;4.05;;;15.80;99.90;;;;;;2056843;28;20028;-70
2021/08/03 04:33:52;;;;;;;4.75;3.85;;;15.80;99.90;;;;;;2056761;28;20030;-69
2021/08/03 04:34:52;;;;;;;4.93;3.97;;;15.80;99.90;;;;;;2056467;28;20483;-70
2021/08/03 04:35:53;;;;;;;5.80;3.75;;;15.80;99.90;;;;;;2056485;28;20033;-68
2021/08/03 04:36:54;;;;;;;6.50;3.90;;;15.80;99.90;;;;;;2056883;28;20039;-70
2021/08/03 04:37:55;;;;;;;4.15;3.75;;;15.70;99.90;;;;;;2056754;28;20041;-69
2021/08/03 04:38:55;;;;;;;4.72;3.80;;;15.70;99.90;;;;;;2056861;28;20054;-69
2021/08/03 04:39:56;;;;;;;5.65;3.80;;;15.70;99.90;;;;;;2056368;28;20367;-69
2021/08/03 04:40:57;;;;;;;4.80;3.80;;;15.70;99.90;;;;;;2056707;28;20070;-69
2021/08/03 04:41:57;;;;;;;3.80;3.50;;;15.70;99.90;;;;;;2056004;28;20572;-69
2021/08/03 04:42:58;;;;;;;8.50;3.97;;;15.70;99.90;;;;;;2055975;28;20049;-69
2021/08/03 04:43:59;;;;;;;4.05;3.65;;;15.70;99.90;;;;;;2056684;28;20026;-69
2021/08/03 04:44:59;;;;;;;4.05;3.63;;;15.70;99.90;;;;;;2055818;28;20509;-69
2021/08/03 04:46:00;;;;;;;4.35;3.72;;;15.70;99.90;;;;;;2055752;28;20026;-69
2021/08/03 04:47:01;;;;;;;4.10;3.70;;;15.60;99.90;;;;;;2056631;28;20038;-70
2021/08/03 04:48:01;;;;;;;5.10;3.75;;;15.70;99.90;;;;;;2056665;28;20037;-71
2021/08/03 04:49:02;;;;;;;5.35;3.63;;;15.60;99.90;;;;;;2056639;28;20066;-70
2021/08/03 04:50:03;;;;;;;4.35;3.95;;;15.60;99.90;;;;;;2056301;28;20023;-71
2021/08/03 04:51:04;;;;;;;5.57;4.15;;;15.60;99.90;;;;;;2056395;28;20708;-69
2021/08/03 04:52:05;;;;;;;3.85;3.55;;;15.60;99.90;;;;;;2056493;28;20489;-71
2021/08/03 04:53:06;;;;;;;4.82;3.83;;;15.60;99.90;;;;;;2056439;28;20049;-69
2021/08/03 04:54:07;;;;;;;4.10;3.70;;;15.60;99.90;;;;;;2056501;28;20030;-70
2021/08/03 04:55:09;;;;;;;5.55;3.83;;;15.60;99.90;;;;;;2056258;28;20438;-69
2021/08/03 04:56:09;;;;;;;5.07;3.90;;;15.60;99.90;;;;;;2055528;28;20035;-69
2021/08/03 04:57:10;;;;;;;4.13;3.72;;;15.60;99.90;;;;;;2048053;29;20554;-70
2021/08/03 04:58:11;;;;;;;4.60;3.78;;;15.80;99.90;;;;;;2056087;28;20030;-68
2021/08/03 04:59:11;;;;;;;4.35;3.70;;;16.00;99.90;;;;;;2056507;28;20030;-69
2021/08/03 05:00:14;;;;;;;5.15;3.47;;;16.40;99.90;;;;;;2055982;28;20027;-68
2021/08/03 05:01:14;;;;;;;6.07;3.83;;;16.90;99.90;;;;;;2056527;28;20102;-72
2021/08/03 05:02:15;;;;;;;4.22;3.70;;;17.30;98.90;;;;;;2055760;28;20117;-69
2021/08/03 05:03:16;;;;;;;4.05;3.63;;;17.80;97.40;;;;;;2055716;28;20030;-68
2021/08/03 05:04:16;;;;;;;5.75;3.35;;;18.20;95.70;;;;;;2056238;28;20027;-68
2021/08/03 05:05:17;;;;;;;5.05;3.50;;;18.60;93.40;;;;;;2056443;28;20027;-68
2021/08/03 05:06:18;;;;;;;4.47;3.58;;;18.90;92.20;;;;;;2056263;28;20031;-69
2021/08/03 05:07:18;;;;;;;9.13;3.80;;;19.30;90.80;;;;;;2055954;28;20035;-69
2021/08/03 05:08:19;;;;;;;6.43;3.90;;;19.60;88.60;;;;;;2055925;28;20494;-71
2021/08/03 05:09:19;;;;;;;5.22;3.60;;;19.80;86.10;;;;;;2056078;28;20100;-68
2021/08/03 05:10:20;;;;;;;7.50;3.58;;;20.10;84.60;;;;;;2056429;28;20113;-69
2021/08/03 05:11:20;;;;;;;3.92;3.30;;;20.40;82.20;;;;;;2056373;28;20117;-69
2021/08/03 05:12:21;;;;;;;3.47;3.00;;;20.70;80.00;;;;;;2056148;28;20114;-68
2021/08/03 05:13:22;;;;;;;5.05;3.00;;;20.90;78.10;;;;;;2056562;28;20419;-69
2021/08/03 05:14:23;;;;;;;5.30;3.30;;;21.10;76.80;;;;;;2055856;28;20049;-69
2021/08/03 05:15:24;;;;;;;4.00;3.00;;;21.10;75.50;;;;;;2055828;28;20074;-68
2021/08/03 05:16:25;;;;;;;3.58;3.10;;;21.10;75.40;;;;;;2056286;28;20055;-68
2021/08/03 05:17:29;;;;;;;3.90;3.22;;;21.00;75.30;;;;;;2056239;28;20478;-67
2021/08/03 05:18:30;;;;;;;3.30;3.00;;;21.00;75.70;;;;;;2055879;28;20037;-68
2021/08/03 05:19:30;;;;;;;3.67;3.35;;;20.90;75.60;;;;;;2055436;28;20035;-69
2021/08/03 05:20:31;;;;;;;5.25;2.97;;;20.90;75.40;;;;;;2056621;28;20027;-71
2021/08/03 05:21:32;;;;;;;3.40;3.10;;;20.80;75.60;;;;;;2056515;28;20038;-70
2021/08/03 05:22:32;;;;;;;4.65;3.30;;;20.90;75.40;;;;;;2056426;28;20055;-69
2021/08/03 05:23:33;;;;;;;4.32;3.50;;;20.80;75.20;;;;;;2056461;28;20023;-70
2021/08/03 05:24:33;;;;;;;3.38;3.08;;;20.70;75.10;;;;;;2056501;28;20459;-71
2021/08/03 05:25:34;;;;;;;3.67;3.30;;;20.60;75.40;;;;;;2056090;28;20254;-70
2021/08/03 05:26:35;;;;;;;5.95;3.30;;;20.50;76.10;;;;;;2056138;28;20026;-70
2021/08/03 05:27:35;;;;;;;3.35;3.05;;;20.50;77.70;;;;;;2055768;28;20037;-71
2021/08/03 05:28:36;;;;;;;5.88;3.30;;;20.60;77.30;;;;;;2047763;29;20558;-71
2021/08/03 05:29:36;;;;;;;3.60;3.20;;;20.70;76.70;;;;;;2047573;29;20064;-72
2021/08/03 05:30:37;;;;;;;6.63;3.45;;;20.90;75.80;;;;;;2055989;28;20415;-71
2021/08/03 05:31:38;;;;;;;4.85;3.38;;;20.80;75.10;;;;;;2055648;28;20034;-71
2021/08/03 05:32:38;;;;;;;8.07;3.40;;;20.70;75.00;;;;;;2055753;28;20031;-71
2021/08/03 05:33:40;;;;;;;6.72;3.20;;;20.70;75.50;;;;;;2056609;28;20023;-72
2021/08/03 05:34:40;;;;;;;4.13;3.30;;;20.50;75.60;;;;;;2057165;28;20497;-72
2021/08/03 05:35:41;;;;;;;4.20;3.22;;;20.40;76.00;;;;;;2056825;28;20085;-72
2021/08/03 05:36:42;;;;;;;5.38;3.63;;;20.20;76.70;;;;;;2048048;28;20455;-69
2021/08/03 05:37:43;;;;;;;6.90;3.53;;;20.00;77.60;;;;;;2055549;28;20066;-69